Time;durP1;ratioP1;P1;durP2;ratioP2;P2;SDS_P1;SDS_P2;PMS_P1;PMS_P2;Temp;Humidity;BMP_temperature;BMP_pressure;BME280_temperature;BME280_humidity;BME280_pressure;Samples;Min_cycle;Max_cycle;Signal;HPM_P1;HPM_P2
2022/11/22 00:01:27;;;;;;;10.33;2.33;;;9.50;99.90;;;;;;5004304;28;20229;-30
2022/11/22 00:03:59;;;;;;;12.63;2.70;;;9.50;99.90;;;;;;4999122;28;20214;-30
2022/11/22 00:06:29;;;;;;;10.20;2.50;;;9.50;99.90;;;;;;5000620;28;20194;-30
2022/11/22 00:08:56;;;;;;;12.83;3.53;;;9.50;99.90;;;;;;4994962;28;20309;-30
2022/11/22 00:11:23;;;;;;;10.43;2.70;;;9.50;99.90;;;;;;4996513;28;20565;-30
2022/11/22 00:13:53;;;;;;;12.70;2.67;;;9.40;99.90;;;;;;5002356;28;20221;-30
2022/11/22 00:16:22;;;;;;;14.53;2.87;;;9.40;99.90;;;;;;5003684;28;20248;-30
2022/11/22 00:18:51;;;;;;;9.93;2.67;;;9.40;99.90;;;;;;5003303;28;20206;-30
2022/11/22 00:21:19;;;;;;;12.63;2.60;;;9.40;99.90;;;;;;5004518;28;20300;-30
2022/11/22 00:23:46;;;;;;;12.00;2.53;;;9.40;99.90;;;;;;5004167;28;20208;-30
2022/11/22 00:26:13;;;;;;;12.87;2.80;;;9.30;99.90;;;;;;5009954;28;20233;-30
2022/11/22 00:28:43;;;;;;;11.07;2.97;;;9.30;99.90;;;;;;4997779;28;20670;-30
2022/11/22 00:31:10;;;;;;;8.20;2.60;;;9.30;99.90;;;;;;5005174;28;20201;-30
2022/11/22 00:33:40;;;;;;;11.73;2.70;;;9.30;99.90;;;;;;5000189;28;20806;-30
2022/11/22 00:36:07;;;;;;;13.53;2.80;;;9.30;99.90;;;;;;5003601;28;20240;-30
2022/11/22 00:38:36;;;;;;;11.53;2.83;;;9.30;99.90;;;;;;5007204;28;20743;-30
2022/11/22 00:41:04;;;;;;;11.03;2.90;;;9.20;99.90;;;;;;4999170;28;20567;-30
2022/11/22 00:43:33;;;;;;;12.03;2.87;;;9.20;99.90;;;;;;5015607;28;20316;-30
2022/11/22 00:46:04;;;;;;;10.37;2.53;;;9.20;99.90;;;;;;5008246;28;20218;-30
2022/11/22 00:48:32;;;;;;;12.47;3.13;;;9.20;99.90;;;;;;4989545;28;20264;-30
2022/11/22 00:51:06;;;;;;;8.63;2.67;;;9.20;99.90;;;;;;5011452;28;20205;-30
2022/11/22 00:53:33;;;;;;;13.17;3.40;;;9.10;99.90;;;;;;4991589;28;20232;-30
2022/11/22 00:56:02;;;;;;;14.57;3.00;;;9.10;99.90;;;;;;4998833;28;20576;-30
2022/11/22 00:58:33;;;;;;;12.93;2.83;;;9.10;99.90;;;;;;5006431;28;20217;-30
2022/11/22 01:01:02;;;;;;;12.33;2.60;;;9.10;99.90;;;;;;5003865;28;20203;-30
2022/11/22 01:03:30;;;;;;;16.37;3.23;;;9.10;99.90;;;;;;5001782;28;20229;-30
2022/11/22 01:05:57;;;;;;;16.27;3.13;;;9.10;99.90;;;;;;4997081;28;20245;-30
2022/11/22 01:08:26;;;;;;;11.40;2.53;;;9.00;99.90;;;;;;5003482;28;20198;-30
2022/11/22 01:11:00;;;;;;;16.17;3.00;;;9.00;99.90;;;;;;5007866;28;20308;-30
2022/11/22 01:13:29;;;;;;;12.57;2.70;;;9.00;99.90;;;;;;5007873;28;20826;-30
2022/11/22 01:16:05;;;;;;;11.13;2.77;;;8.90;99.90;;;;;;5006499;28;20212;-30
2022/11/22 01:18:37;;;;;;;16.23;2.63;;;8.90;99.90;;;;;;5004008;28;20429;-30
2022/11/22 01:21:04;;;;;;;14.53;2.60;;;8.90;99.90;;;;;;4991750;28;20190;-30
2022/11/22 01:23:37;;;;;;;14.10;2.73;;;8.90;99.90;;;;;;5005304;28;20869;-30
2022/11/22 01:26:08;;;;;;;15.27;3.60;;;8.80;99.90;;;;;;4999687;28;20539;-30
2022/11/22 01:28:35;;;;;;;14.10;2.70;;;8.80;99.90;;;;;;4996356;28;20296;-30
2022/11/22 01:31:04;;;;;;;11.20;2.60;;;8.80;99.90;;;;;;4997580;28;20222;-30
2022/11/22 01:33:34;;;;;;;11.27;3.00;;;8.80;99.90;;;;;;4998739;28;20321;-30
2022/11/22 01:36:04;;;;;;;12.30;2.77;;;8.70;99.90;;;;;;4992507;28;20193;-30
2022/11/22 01:38:33;;;;;;;17.67;3.07;;;8.70;99.90;;;;;;4992669;28;20268;-30
2022/11/22 01:41:07;;;;;;;14.43;2.63;;;8.60;99.90;;;;;;5006480;28;20236;-30
2022/11/22 01:43:35;;;;;;;12.63;2.33;;;8.60;99.90;;;;;;5001331;28;20711;-30
2022/11/22 01:46:08;;;;;;;14.40;2.40;;;8.70;99.90;;;;;;5007931;28;20229;-30
2022/11/22 01:48:44;;;;;;;13.80;3.07;;;8.60;99.90;;;;;;5020498;28;20328;-30
2022/11/22 01:51:28;;;;;;;16.70;3.00;;;8.60;99.90;;;;;;5005569;28;20244;-30
2022/11/22 01:54:01;;;;;;;11.30;2.00;;;8.60;99.90;;;;;;5003562;28;20307;-30
2022/11/22 01:56:32;;;;;;;15.87;2.90;;;8.60;99.90;;;;;;4991472;28;20695;-30
2022/11/22 01:59:04;;;;;;;13.77;3.07;;;8.60;99.90;;;;;;4993393;28;20194;-30
2022/11/22 02:01:32;;;;;;;13.20;2.90;;;8.60;99.90;;;;;;5012921;28;20267;-30
2022/11/22 02:04:03;;;;;;;12.47;2.40;;;8.50;99.90;;;;;;5009956;28;20619;-30
2022/11/22 02:07:20;;;;;;;7.63;2.20;;;8.50;99.90;;;;;;5014894;28;20216;-30
2022/11/22 02:09:51;;;;;;;11.33;2.77;;;8.50;99.90;;;;;;5001596;28;20212;-30
2022/11/22 02:12:25;;;;;;;8.23;2.30;;;8.50;99.90;;;;;;5021681;28;20777;-30
2022/11/22 02:14:53;;;;;;;11.87;2.60;;;8.40;99.90;;;;;;5021114;28;20641;-30
2022/11/22 02:17:23;;;;;;;9.87;2.27;;;8.40;99.90;;;;;;4997267;28;20207;-30
2022/11/22 02:19:56;;;;;;;12.40;2.30;;;8.30;99.90;;;;;;5006982;28;20317;-30
2022/11/22 02:22:48;;;;;;;11.70;2.30;;;8.30;99.90;;;;;;5021091;28;20240;-30
2022/11/22 02:25:29;;;;;;;7.33;1.97;;;8.30;99.90;;;;;;5008631;28;20307;-30
2022/11/22 02:27:56;;;;;;;10.77;2.40;;;8.30;99.90;;;;;;5023794;28;20319;-30
2022/11/22 02:30:28;;;;;;;10.27;2.70;;;8.30;99.90;;;;;;5016657;28;20229;-30
2022/11/22 02:32:55;;;;;;;11.67;2.20;;;8.20;99.90;;;;;;5005248;28;20230;-30
2022/11/22 02:35:27;;;;;;;13.90;2.80;;;8.20;99.90;;;;;;5005205;28;20233;-30
2022/11/22 02:38:02;;;;;;;13.27;2.33;;;8.20;99.90;;;;;;5006142;28;20695;-30
2022/11/22 02:40:33;;;;;;;11.20;2.23;;;8.20;99.90;;;;;;5005814;28;20232;-30
2022/11/22 02:43:20;;;;;;;9.60;2.30;;;8.20;99.90;;;;;;5005362;28;20234;-30
2022/11/22 02:45:47;;;;;;;9.07;2.20;;;8.10;99.90;;;;;;5007358;28;20268;-30
2022/11/22 02:48:16;;;;;;;11.90;2.30;;;8.10;99.90;;;;;;4990596;28;20245;-30
2022/11/22 02:50:46;;;;;;;6.87;2.00;;;8.10;99.90;;;;;;4995672;28;20657;-30
2022/11/22 02:53:18;;;;;;;9.00;2.00;;;8.10;99.90;;;;;;5005664;28;21093;-30
2022/11/22 02:55:45;;;;;;;8.43;2.00;;;8.10;99.90;;;;;;4992661;28;20237;-31
2022/11/22 02:58:14;;;;;;;12.13;2.07;;;8.10;99.90;;;;;;4988978;28;20209;-30
2022/11/22 03:00:42;;;;;;;8.23;1.77;;;8.00;99.90;;;;;;5004710;28;20236;-30
2022/11/22 03:03:12;;;;;;;9.30;2.00;;;8.00;99.90;;;;;;4990225;28;20202;-30
2022/11/22 03:05:41;;;;;;;11.90;1.80;;;8.00;99.90;;;;;;5003970;28;20209;-30
2022/11/22 03:08:11;;;;;;;6.90;2.00;;;8.00;99.90;;;;;;4995937;28;20264;-30
2022/11/22 03:10:42;;;;;;;6.13;1.70;;;8.00;99.90;;;;;;4986701;28;20260;-30
2022/11/22 03:13:12;;;;;;;5.57;1.83;;;8.00;99.90;;;;;;5001031;28;20214;-30
2022/11/22 03:15:39;;;;;;;10.27;2.20;;;7.90;99.90;;;;;;5006397;28;20201;-30
2022/11/22 03:18:06;;;;;;;8.77;2.00;;;7.90;99.90;;;;;;5003545;28;20198;-30
2022/11/22 03:20:35;;;;;;;7.40;2.10;;;7.90;99.90;;;;;;5009264;28;20743;-30
2022/11/22 03:23:02;;;;;;;12.63;2.23;;;7.90;99.90;;;;;;4992106;28;20210;-30
2022/11/22 03:25:29;;;;;;;7.53;1.50;;;7.90;99.90;;;;;;4999566;28;20233;-30
2022/11/22 03:27:59;;;;;;;12.13;2.53;;;7.90;99.90;;;;;;5004185;28;20676;-30
2022/11/22 03:30:28;;;;;;;9.97;2.03;;;7.90;99.90;;;;;;4994279;28;20275;-30
2022/11/22 03:33:00;;;;;;;10.40;1.80;;;7.80;99.90;;;;;;4997017;28;20237;-30
2022/11/22 03:35:27;;;;;;;9.67;2.50;;;7.80;99.90;;;;;;5016832;28;20837;-30
2022/11/22 03:37:56;;;;;;;10.27;1.93;;;7.80;99.90;;;;;;5024130;28;20237;-30
2022/11/22 03:40:26;;;;;;;7.07;1.80;;;7.80;99.90;;;;;;5005436;28;20289;-31
2022/11/22 03:42:58;;;;;;;10.83;2.07;;;7.80;99.90;;;;;;4985539;28;20198;-31
2022/11/22 03:45:27;;;;;;;8.40;2.10;;;7.80;99.90;;;;;;4989521;28;20225;-30
2022/11/22 03:47:57;;;;;;;8.90;1.83;;;7.70;99.90;;;;;;4985367;28;20758;-31
2022/11/22 03:50:24;;;;;;;9.97;1.30;;;7.70;99.90;;;;;;4999078;28;20631;-30
2022/11/22 03:52:56;;;;;;;9.13;1.70;;;7.70;99.90;;;;;;5001972;28;20219;-30
2022/11/22 03:55:25;;;;;;;10.00;2.00;;;7.70;99.90;;;;;;5004161;28;20670;-30
2022/11/22 03:57:55;;;;;;;8.93;1.83;;;7.70;99.90;;;;;;5005343;28;20513;-30
2022/11/22 04:00:22;;;;;;;7.03;1.83;;;7.70;99.90;;;;;;5003463;28;20217;-31
2022/11/22 04:02:52;;;;;;;5.60;1.77;;;7.70;99.90;;;;;;5006580;28;20744;-31
2022/11/22 04:05:21;;;;;;;9.13;2.00;;;7.60;99.90;;;;;;4995132;28;20209;-30
2022/11/22 04:07:55;;;;;;;5.07;1.43;;;7.70;99.90;;;;;;5007777;28;20632;-30
2022/11/22 04:10:25;;;;;;;8.37;2.07;;;7.60;99.90;;;;;;5006715;28;20709;-30
2022/11/22 04:13:01;;;;;;;8.80;2.00;;;7.60;99.90;;;;;;5008534;28;20651;-31
2022/11/22 04:15:30;;;;;;;13.53;2.30;;;7.60;99.90;;;;;;5008273;28;20610;-31
2022/11/22 04:17:57;;;;;;;8.37;2.00;;;7.60;99.90;;;;;;5008583;28;20229;-30
2022/11/22 04:23:19;;;;;;;6.87;1.77;;;7.50;99.90;;;;;;5006687;28;20244;-30
2022/11/22 04:25:48;;;;;;;8.73;1.80;;;7.50;99.90;;;;;;5009272;28;20201;-30
2022/11/22 04:28:24;;;;;;;10.27;2.20;;;7.50;99.90;;;;;;5020859;28;20237;-30
2022/11/22 04:33:59;;;;;;;5.83;2.27;;;7.50;99.90;;;;;;4992624;28;20234;-30
2022/11/22 04:36:31;;;;;;;10.67;2.60;;;7.40;99.90;;;;;;5008395;28;20636;-30
2022/11/22 04:38:58;;;;;;;7.63;1.97;;;7.50;99.90;;;;;;5005873;28;20205;-31
2022/11/22 04:41:30;;;;;;;6.70;2.00;;;7.40;99.90;;;;;;4996420;28;20201;-31
2022/11/22 04:46:46;;;;;;;6.67;1.67;;;7.40;99.90;;;;;;4999102;28;20285;-30
2022/11/22 04:49:13;;;;;;;7.70;2.17;;;7.40;99.90;;;;;;4988228;28;20337;-31
2022/11/22 04:54:30;;;;;;;6.33;1.80;;;7.40;99.90;;;;;;5007097;28;20603;-29
2022/11/22 04:56:58;;;;;;;9.07;1.97;;;7.40;99.90;;;;;;5007512;28;20237;-30
2022/11/22 04:59:25;;;;;;;4.57;1.67;;;7.40;99.90;;;;;;5007966;28;20292;-30
2022/11/22 05:01:54;;;;;;;8.80;2.03;;;7.30;99.90;;;;;;5008416;28;20689;-30
2022/11/22 05:04:21;;;;;;;11.17;2.27;;;7.30;99.90;;;;;;5006131;28;20205;-30
2022/11/22 05:06:48;;;;;;;10.30;2.60;;;7.30;99.90;;;;;;5007201;28;20687;-30
2022/11/22 05:09:18;;;;;;;8.70;2.23;;;7.30;99.90;;;;;;5005288;28;20228;-30
2022/11/22 05:11:48;;;;;;;7.07;2.13;;;7.30;99.90;;;;;;5007389;28;20316;-30
2022/11/22 05:14:22;;;;;;;11.50;2.73;;;7.30;99.90;;;;;;5001738;28;20223;-30
2022/11/22 05:16:49;;;;;;;7.37;2.10;;;7.30;99.90;;;;;;4986252;28;20226;-30
2022/11/22 05:19:16;;;;;;;7.67;2.40;;;7.30;99.90;;;;;;4991626;28;20198;-30
2022/11/22 05:21:46;;;;;;;8.83;2.70;;;7.30;99.90;;;;;;5004252;28;20220;-30
2022/11/22 05:24:18;;;;;;;9.23;2.23;;;7.30;99.90;;;;;;5005659;28;20291;-30
2022/11/22 05:26:45;;;;;;;11.50;2.50;;;7.30;99.90;;;;;;5007772;28;20218;-30
2022/11/22 05:29:14;;;;;;;6.73;2.43;;;7.30;99.90;;;;;;5002782;28;20377;-30
2022/11/22 05:31:42;;;;;;;9.60;2.30;;;7.30;99.90;;;;;;5000284;28;20328;-30
2022/11/22 05:34:21;;;;;;;12.70;2.80;;;7.30;99.90;;;;;;4994283;28;20708;-30
2022/11/22 05:36:50;;;;;;;8.30;1.70;;;7.30;99.90;;;;;;5006729;28;20213;-30
2022/11/22 05:39:18;;;;;;;7.73;2.40;;;7.30;99.90;;;;;;5004526;28;20280;-30
2022/11/22 05:41:54;;;;;;;7.27;2.43;;;7.30;99.90;;;;;;5000256;28;20214;-30
2022/11/22 05:44:24;;;;;;;4.97;2.00;;;7.30;99.90;;;;;;5006985;28;20259;-30
2022/11/22 05:46:51;;;;;;;5.77;2.00;;;7.30;99.90;;;;;;5007732;28;20647;-30
2022/11/22 05:49:22;;;;;;;11.43;2.27;;;7.30;99.90;;;;;;5005260;28;20695;-30
2022/11/22 05:51:50;;;;;;;10.53;2.30;;;7.20;99.90;;;;;;5016557;28;20299;-30
2022/11/22 05:54:17;;;;;;;6.60;2.40;;;7.20;99.90;;;;;;4989734;28;20630;-30
2022/11/22 05:56:44;;;;;;;11.30;2.60;;;7.20;99.90;;;;;;4991209;28;20695;-30
2022/11/22 05:59:13;;;;;;;6.97;2.13;;;7.20;99.90;;;;;;4999252;28;20633;-30
2022/11/22 06:01:43;;;;;;;7.40;2.60;;;7.20;99.90;;;;;;4993406;28;20696;-30
2022/11/22 06:04:13;;;;;;;6.00;2.30;;;7.20;99.90;;;;;;4999608;28;20225;-30
2022/11/22 06:06:40;;;;;;;8.50;2.13;;;7.20;99.90;;;;;;4997364;28;20551;-30
2022/11/22 06:09:10;;;;;;;6.57;2.27;;;7.20;99.90;;;;;;5013142;28;20204;-30
2022/11/22 06:11:39;;;;;;;8.40;1.90;;;7.20;99.90;;;;;;4997677;28;20205;-30
2022/11/22 06:14:10;;;;;;;6.20;1.90;;;7.30;99.90;;;;;;5001795;28;20230;-30
2022/11/22 06:16:39;;;;;;;7.70;1.90;;;7.20;99.90;;;;;;5001511;28;20213;-32
2022/11/22 06:19:07;;;;;;;7.83;1.80;;;7.30;99.90;;;;;;5002389;28;20624;-32
2022/11/22 06:21:36;;;;;;;7.30;1.90;;;7.30;99.90;;;;;;5000855;28;20214;-33
2022/11/22 06:24:06;;;;;;;6.60;1.80;;;7.30;99.90;;;;;;5003350;28;20672;-33
2022/11/22 06:26:35;;;;;;;8.07;2.07;;;7.40;99.90;;;;;;5001458;28;20307;-33
2022/11/22 06:29:05;;;;;;;6.63;2.13;;;7.40;99.90;;;;;;5014324;28;20766;-32
2022/11/22 06:31:35;;;;;;;7.30;1.87;;;7.40;99.90;;;;;;5008755;28;20304;-33
2022/11/22 06:34:03;;;;;;;4.70;1.50;;;7.50;99.90;;;;;;5008226;28;20237;-32
2022/11/22 06:36:33;;;;;;;8.93;2.10;;;7.50;99.90;;;;;;5003146;28;20627;-30
2022/11/22 06:39:02;;;;;;;6.57;2.13;;;7.50;99.90;;;;;;5001385;28;20304;-30
2022/11/22 06:41:35;;;;;;;6.30;2.10;;;7.60;99.90;;;;;;5003776;28;20201;-30
2022/11/22 06:44:05;;;;;;;5.10;1.97;;;7.60;99.90;;;;;;5018413;28;20323;-30
2022/11/22 06:46:36;;;;;;;6.13;2.13;;;7.60;99.90;;;;;;5022370;28;20271;-30
2022/11/22 06:49:10;;;;;;;3.60;1.57;;;7.60;99.90;;;;;;5003487;28;20233;-30
2022/11/22 06:51:42;;;;;;;7.20;2.00;;;7.70;99.90;;;;;;5004703;28;20808;-30
2022/11/22 06:54:10;;;;;;;7.33;1.80;;;7.70;99.90;;;;;;4995531;28;20224;-30
2022/11/22 06:56:39;;;;;;;6.83;1.70;;;7.80;99.90;;;;;;5000412;28;20676;-30
2022/11/22 06:59:09;;;;;;;5.17;1.60;;;7.80;99.90;;;;;;4998302;28;20197;-30
2022/11/22 07:01:40;;;;;;;8.63;1.97;;;7.80;99.90;;;;;;5009991;28;20607;-30
2022/11/22 07:04:07;;;;;;;12.13;1.97;;;7.90;99.90;;;;;;5003476;28;20213;-30
2022/11/22 07:06:37;;;;;;;5.60;1.80;;;7.90;99.90;;;;;;5003730;28;20308;-30
2022/11/22 07:09:09;;;;;;;4.27;1.60;;;7.90;99.90;;;;;;5018838;28;20232;-30
2022/11/22 07:11:38;;;;;;;7.93;2.03;;;8.00;99.90;;;;;;5001531;28;20232;-30
2022/11/22 07:14:05;;;;;;;6.83;1.77;;;7.90;99.90;;;;;;5018119;28;20246;-30
2022/11/22 07:16:36;;;;;;;9.07;2.07;;;8.00;99.90;;;;;;5011701;28;20582;-30
2022/11/22 07:19:06;;;;;;;8.33;1.60;;;8.00;99.90;;;;;;5015624;28;20209;-30
2022/11/22 07:21:36;;;;;;;7.37;1.67;;;8.00;99.90;;;;;;5005719;28;20198;-30
2022/11/22 07:24:06;;;;;;;4.57;1.70;;;8.00;99.90;;;;;;4997025;28;20472;-30
2022/11/22 07:26:34;;;;;;;5.37;1.50;;;8.10;99.90;;;;;;5004564;28;20218;-30
2022/11/22 07:29:05;;;;;;;6.63;1.70;;;8.10;99.90;;;;;;5009497;28;20293;-30
2022/11/22 07:31:37;;;;;;;7.80;2.00;;;8.10;99.90;;;;;;5007613;28;20236;-30
2022/11/22 07:34:04;;;;;;;6.93;1.90;;;8.10;99.90;;;;;;5007449;28;20300;-30
2022/11/22 07:36:31;;;;;;;6.50;1.77;;;8.10;99.90;;;;;;5006724;28;20204;-30
2022/11/22 07:39:01;;;;;;;7.83;1.80;;;8.20;99.90;;;;;;5012212;28;20284;-30
2022/11/22 07:41:30;;;;;;;6.50;2.00;;;8.20;99.90;;;;;;5012968;28;20231;-30
2022/11/22 07:44:00;;;;;;;7.07;2.00;;;8.20;99.90;;;;;;5003914;28;20197;-30
2022/11/22 07:46:31;;;;;;;6.77;2.13;;;8.20;99.90;;;;;;5001906;28;20781;-30
2022/11/22 07:49:06;;;;;;;7.73;1.97;;;8.20;99.90;;;;;;4999254;28;20241;-30
2022/11/22 07:51:33;;;;;;;7.13;1.90;;;8.20;99.90;;;;;;5000397;28;20245;-29
2022/11/22 07:54:12;;;;;;;6.93;2.73;;;8.30;99.90;;;;;;5014221;28;20838;-30
2022/11/22 07:56:44;;;;;;;4.40;1.60;;;8.30;99.90;;;;;;5001680;28;20221;-30
2022/11/22 07:59:15;;;;;;;5.23;1.83;;;8.40;99.90;;;;;;5005634;28;20667;-30
2022/11/22 08:01:43;;;;;;;6.53;2.00;;;8.30;99.90;;;;;;5010028;28;20205;-29
2022/11/22 08:04:10;;;;;;;5.43;1.80;;;8.30;99.90;;;;;;5022548;28;20615;-30
2022/11/22 08:06:39;;;;;;;7.97;2.30;;;8.40;99.90;;;;;;5005882;28;20672;-30
2022/11/22 08:09:09;;;;;;;5.93;1.83;;;8.40;99.90;;;;;;5007733;28;20228;-30
2022/11/22 08:11:36;;;;;;;7.10;2.00;;;8.40;99.90;;;;;;5006933;28;20742;-29
2022/11/22 08:14:03;;;;;;;6.23;2.00;;;8.40;99.90;;;;;;5010667;28;20390;-30
2022/11/22 08:16:33;;;;;;;4.37;1.60;;;8.40;99.90;;;;;;5019664;28;20197;-30
2022/11/22 08:19:05;;;;;;;5.97;1.87;;;8.50;99.90;;;;;;5004787;28;20229;-30
2022/11/22 08:21:33;;;;;;;8.80;2.00;;;8.50;99.90;;;;;;5003062;28;20209;-30
2022/11/22 08:24:02;;;;;;;8.90;2.43;;;8.50;99.90;;;;;;5006198;28;20307;-30
2022/11/22 08:26:31;;;;;;;6.97;2.00;;;8.50;99.90;;;;;;4999723;28;20212;-29
2022/11/22 08:28:59;;;;;;;4.93;1.83;;;8.50;99.90;;;;;;5022094;28;20680;-30
2022/11/22 08:31:28;;;;;;;7.40;2.27;;;8.50;99.90;;;;;;5007658;28;20691;-29
2022/11/22 08:33:56;;;;;;;7.87;2.00;;;8.50;99.90;;;;;;5000271;28;20304;-30
2022/11/22 08:36:23;;;;;;;7.20;2.03;;;8.60;99.90;;;;;;4999926;28;20547;-30
2022/11/22 08:38:50;;;;;;;11.60;1.93;;;8.60;99.90;;;;;;5003408;28;20290;-29
2022/11/22 08:41:20;;;;;;;6.33;1.90;;;8.60;99.90;;;;;;5005093;28;20218;-30
2022/11/22 08:43:51;;;;;;;7.07;1.90;;;8.60;99.90;;;;;;4993770;28;20230;-29
2022/11/22 08:46:19;;;;;;;6.87;1.90;;;8.60;99.90;;;;;;4992435;28;20231;-30
2022/11/22 08:48:46;;;;;;;8.57;2.40;;;8.60;99.90;;;;;;4996886;28;20241;-30
2022/11/22 08:51:13;;;;;;;7.57;1.83;;;8.60;99.90;;;;;;5022905;28;20202;-30
2022/11/22 08:53:42;;;;;;;8.20;2.20;;;8.70;99.90;;;;;;5016012;28;20612;-29
2022/11/22 08:56:13;;;;;;;8.47;2.17;;;8.70;99.90;;;;;;5019735;28;20626;-30
2022/11/22 08:58:41;;;;;;;4.87;1.77;;;8.70;99.90;;;;;;5021329;28;20248;-29
2022/11/22 09:01:14;;;;;;;11.20;2.97;;;8.70;99.90;;;;;;5017673;28;20200;-30
2022/11/22 09:03:46;;;;;;;10.40;2.50;;;8.70;99.90;;;;;;5014885;28;20208;-30
2022/11/22 09:06:17;;;;;;;8.30;2.83;;;8.70;99.90;;;;;;5019582;28;20237;-29
2022/11/22 09:09:07;;;;;;;5.40;2.23;;;8.80;99.90;;;;;;5004268;28;20329;-30
2022/11/22 09:11:54;;;;;;;8.80;1.97;;;8.80;99.90;;;;;;5007124;28;20207;-30
2022/11/22 09:14:22;;;;;;;9.20;2.13;;;8.80;99.90;;;;;;5021073;28;20272;-30
2022/11/22 09:16:49;;;;;;;8.77;1.87;;;8.80;99.90;;;;;;5008740;28;20629;-30
2022/11/22 09:19:18;;;;;;;6.00;1.80;;;8.80;99.90;;;;;;5008861;28;20209;-29
2022/11/22 09:21:45;;;;;;;6.17;1.80;;;8.80;99.90;;;;;;5009965;28;20206;-30
2022/11/22 09:24:12;;;;;;;7.43;1.83;;;8.80;99.90;;;;;;5007783;28;20217;-32
2022/11/22 09:26:42;;;;;;;9.13;1.70;;;8.80;99.90;;;;;;5004664;28;20644;-32
2022/11/22 09:29:09;;;;;;;3.93;1.63;;;8.90;99.90;;;;;;5004579;28;20225;-32
2022/11/22 09:31:41;;;;;;;4.87;1.90;;;8.90;99.90;;;;;;5003812;28;20228;-32
2022/11/22 09:34:11;;;;;;;4.10;1.20;;;9.00;99.90;;;;;;5019664;28;20222;-32
2022/11/22 09:36:38;;;;;;;3.63;1.43;;;9.00;99.90;;;;;;5006817;28;20232;-32
2022/11/22 09:39:08;;;;;;;4.60;1.40;;;9.00;99.90;;;;;;5007815;28;20283;-32
2022/11/22 09:41:51;;;;;;;5.10;1.83;;;9.00;99.90;;;;;;4995097;28;20222;-32
2022/11/22 09:44:41;;;;;;;7.20;1.73;;;9.10;99.90;;;;;;5002056;28;20209;-32
2022/11/22 09:47:08;;;;;;;4.03;1.47;;;9.10;99.90;;;;;;5002819;28;20202;-32
2022/11/22 09:49:50;;;;;;;4.63;1.30;;;9.10;99.90;;;;;;5030856;28;20240;-32
2022/11/22 09:52:29;;;;;;;2.10;1.20;;;9.10;99.90;;;;;;5008455;28;20600;-32
2022/11/22 09:55:00;;;;;;;3.40;1.60;;;9.10;99.90;;;;;;5010512;28;20235;-32
2022/11/22 09:57:34;;;;;;;2.53;1.20;;;9.20;99.90;;;;;;5004604;28;20201;-32
2022/11/22 10:00:09;;;;;;;4.03;1.30;;;9.20;99.90;;;;;;5004300;28;20205;-32
2022/11/22 10:02:44;;;;;;;3.17;1.10;;;9.20;99.90;;;;;;5006370;28;20208;-32
2022/11/22 10:06:05;;;;;;;5.90;1.20;;;9.20;99.90;;;;;;5002778;28;20633;-32
2022/11/22 10:08:54;;;;;;;2.97;1.10;;;9.30;99.90;;;;;;5001336;28;20229;-30
2022/11/22 10:11:35;;;;;;;5.90;1.53;;;9.30;99.90;;;;;;5033848;28;20624;-30
2022/11/22 10:14:42;;;;;;;3.30;1.03;;;9.30;99.90;;;;;;5025748;28;20209;-30
2022/11/22 10:17:34;;;;;;;3.33;1.40;;;9.30;99.90;;;;;;4996823;28;20696;-30
2022/11/22 10:20:06;;;;;;;2.30;0.93;;;9.30;99.90;;;;;;5008784;28;20206;-29
2022/11/22 10:22:34;;;;;;;2.93;1.00;;;9.30;99.90;;;;;;5012138;28;20741;-30
2022/11/22 10:25:22;;;;;;;5.67;1.30;;;9.30;99.90;;;;;;5022301;28;20223;-32
2022/11/22 10:27:54;;;;;;;3.13;1.27;;;9.40;99.90;;;;;;5003127;28;20220;-32
2022/11/22 10:30:36;;;;;;;4.70;0.90;;;9.40;99.90;;;;;;5004221;28;20204;-29
2022/11/22 10:33:17;;;;;;;3.07;1.40;;;9.40;99.90;;;;;;4999760;28;20308;-30
2022/11/22 10:36:11;;;;;;;2.57;1.10;;;9.40;99.90;;;;;;5000282;28;20226;-29
2022/11/22 10:38:47;;;;;;;4.93;1.17;;;9.50;99.90;;;;;;5013291;28;21137;-30
2022/11/22 10:41:35;;;;;;;1.97;1.10;;;9.50;99.90;;;;;;5009645;28;20323;-29
2022/11/22 10:44:45;;;;;;;2.33;0.90;;;9.60;99.90;;;;;;5024247;28;20275;-30
2022/11/22 10:47:23;;;;;;;3.07;0.83;;;9.60;99.90;;;;;;5009494;28;20532;-30
2022/11/22 10:50:17;;;;;;;3.40;0.90;;;9.60;99.90;;;;;;4999668;28;20205;-30
2022/11/22 10:52:53;;;;;;;3.10;0.90;;;9.70;99.90;;;;;;5005610;28;20205;-29
2022/11/22 10:55:35;;;;;;;2.67;0.90;;;9.70;99.90;;;;;;5018013;28;20289;-30
2022/11/22 10:58:27;;;;;;;1.30;0.70;;;9.70;99.90;;;;;;5009847;28;20204;-29
2022/11/22 11:01:11;;;;;;;2.80;0.70;;;9.70;99.90;;;;;;5008164;28;20214;-30
2022/11/22 11:03:42;;;;;;;1.50;0.97;;;9.70;99.90;;;;;;5009636;28;20316;-29
2022/11/22 11:06:22;;;;;;;2.07;0.80;;;9.80;99.90;;;;;;4994637;28;20252;-29
2022/11/22 11:09:21;;;;;;;2.43;0.77;;;9.80;99.90;;;;;;4998088;28;20244;-29
2022/11/22 11:12:35;;;;;;;1.77;0.70;;;9.90;99.90;;;;;;5005318;28;20787;-31
2022/11/22 11:15:11;;;;;;;2.43;0.60;;;10.00;99.90;;;;;;5005374;28;20240;-32
2022/11/22 11:17:40;;;;;;;2.33;0.90;;;10.00;99.90;;;;;;5009978;28;20206;-32
2022/11/22 11:20:21;;;;;;;2.80;0.67;;;10.10;99.90;;;;;;5009369;28;20538;-32
2022/11/22 11:22:51;;;;;;;2.63;1.00;;;10.10;99.90;;;;;;5002892;28;20209;-32
2022/11/22 11:25:41;;;;;;;1.30;0.60;;;10.20;99.90;;;;;;5001277;28;20492;-32
2022/11/22 11:28:26;;;;;;;3.37;0.70;;;10.20;99.90;;;;;;5018622;28;20241;-32
2022/11/22 11:31:12;;;;;;;2.90;1.20;;;10.30;99.90;;;;;;5002551;28;20463;-32
2022/11/22 11:33:40;;;;;;;2.97;0.80;;;10.30;99.90;;;;;;5002936;28;20284;-32
2022/11/22 11:36:15;;;;;;;1.80;0.60;;;10.30;99.90;;;;;;5019245;28;20782;-32
2022/11/22 11:38:43;;;;;;;2.30;0.70;;;10.30;99.90;;;;;;5001153;28;20213;-32
2022/11/22 11:41:25;;;;;;;1.50;0.80;;;10.30;99.90;;;;;;5014929;28;20317;-32
2022/11/22 11:43:54;;;;;;;1.87;0.70;;;10.30;99.90;;;;;;5005635;28;20304;-32
2022/11/22 11:46:25;;;;;;;1.10;0.60;;;10.40;99.90;;;;;;5004431;28;20223;-32
2022/11/22 11:49:12;;;;;;;1.97;0.70;;;10.40;99.90;;;;;;5011096;28;20979;-32
2022/11/22 11:52:00;;;;;;;2.63;0.90;;;10.40;99.90;;;;;;5024992;28;20291;-32
2022/11/22 11:54:52;;;;;;;2.27;0.87;;;10.40;99.90;;;;;;5009350;28;20723;-32
2022/11/22 11:57:42;;;;;;;2.03;0.90;;;10.40;99.90;;;;;;4993502;28;20208;-32
2022/11/22 12:00:24;;;;;;;3.20;1.00;;;10.40;99.90;;;;;;4989778;28;20201;-32
2022/11/22 12:03:00;;;;;;;1.93;0.60;;;10.40;99.90;;;;;;4991465;28;20615;-32
2022/11/22 12:05:30;;;;;;;2.27;0.93;;;10.30;99.90;;;;;;5002530;28;20315;-32
2022/11/22 12:08:00;;;;;;;4.37;1.00;;;10.40;99.90;;;;;;4994896;28;20201;-32
2022/11/22 12:10:39;;;;;;;1.30;0.80;;;10.30;99.90;;;;;;4998253;28;20688;-32
2022/11/22 12:13:54;;;;;;;3.50;0.90;;;10.40;99.90;;;;;;5013092;28;20244;-32
2022/11/22 12:16:47;;;;;;;1.83;1.13;;;10.40;99.90;;;;;;5011054;28;20228;-32
2022/11/22 12:19:56;;;;;;;3.67;0.93;;;10.40;99.90;;;;;;5007758;28;20928;-32
2022/11/22 12:22:47;;;;;;;1.53;0.70;;;10.40;99.90;;;;;;5014196;28;20329;-33
2022/11/22 12:25:39;;;;;;;2.60;1.10;;;10.40;99.90;;;;;;5010110;28;20209;-32
2022/11/22 12:28:19;;;;;;;4.27;0.97;;;10.50;99.90;;;;;;5020572;28;20208;-32
2022/11/22 12:30:58;;;;;;;1.10;1.00;;;10.50;99.90;;;;;;5013518;28;20237;-32
2022/11/22 12:33:32;;;;;;;1.23;0.63;;;10.50;99.90;;;;;;5001058;28;20218;-32
2022/11/22 12:36:04;;;;;;;1.70;1.00;;;10.60;99.90;;;;;;4999179;28;20284;-32
2022/11/22 12:38:40;;;;;;;1.37;0.80;;;10.60;99.90;;;;;;5021898;28;20673;-32
2022/11/22 12:41:17;;;;;;;0.70;0.70;;;10.60;99.90;;;;;;5006745;28;20275;-32
2022/11/22 12:43:58;;;;;;;2.70;0.70;;;10.70;99.90;;;;;;5006464;28;20237;-32
2022/11/22 12:46:43;;;;;;;1.00;0.60;;;10.70;99.90;;;;;;5028990;28;20304;-32
2022/11/22 12:49:41;;;;;;;2.77;1.10;;;10.70;99.90;;;;;;5011767;28;20244;-30
2022/11/22 12:52:17;;;;;;;3.70;0.90;;;10.70;99.90;;;;;;5020424;28;20586;-31
2022/11/22 12:55:02;;;;;;;1.37;0.70;;;10.70;99.90;;;;;;5006982;28;20233;-30
2022/11/22 12:58:01;;;;;;;0.93;0.60;;;10.70;99.90;;;;;;5011656;28;20271;-31
2022/11/22 13:00:36;;;;;;;1.27;0.60;;;10.70;99.90;;;;;;5004853;28;20243;-30
2022/11/22 13:03:19;;;;;;;1.93;0.70;;;10.70;99.90;;;;;;5005325;28;20201;-30
2022/11/22 13:05:55;;;;;;;3.20;1.00;;;10.80;99.90;;;;;;5020555;28;20229;-31
2022/11/22 13:08:51;;;;;;;1.80;0.70;;;10.80;99.90;;;;;;5010584;28;20727;-31
2022/11/22 13:11:40;;;;;;;1.53;0.60;;;10.80;99.90;;;;;;4988757;28;20212;-30
2022/11/22 13:14:16;;;;;;;0.77;0.63;;;10.80;99.90;;;;;;5012491;28;20308;-30
2022/11/22 13:16:51;;;;;;;2.57;0.70;;;10.80;99.90;;;;;;5005562;28;20233;-31
2022/11/22 13:19:25;;;;;;;0.80;0.70;;;10.80;99.90;;;;;;5002148;28;20193;-31
2022/11/22 13:22:24;;;;;;;1.00;0.53;;;10.80;99.90;;;;;;5007366;28;20197;-31
2022/11/22 13:25:18;;;;;;;1.30;0.70;;;10.80;99.90;;;;;;4987306;28;20703;-31
2022/11/22 13:27:49;;;;;;;2.50;0.90;;;10.80;99.90;;;;;;4998887;28;20256;-31
2022/11/22 13:30:22;;;;;;;1.00;0.73;;;10.70;99.90;;;;;;5021780;28;20207;-31
2022/11/22 13:33:00;;;;;;;1.53;0.80;;;10.80;99.90;;;;;;5025492;28;20528;-31
2022/11/22 13:35:37;;;;;;;1.47;0.60;;;10.70;99.90;;;;;;5022107;28;20311;-31
2022/11/22 13:38:11;;;;;;;1.40;0.67;;;10.80;99.90;;;;;;5010509;28;20680;-31